createdAt,value
2022-10-14T00:00:10.013Z,33.00
2022-10-14T00:02:39.053Z,31.00
2022-10-14T00:05:08.738Z,30.60
2022-10-14T00:07:36.677Z,29.33
2022-10-14T00:10:04.733Z,30.37
2022-10-14T00:12:32.464Z,30.35
2022-10-14T00:15:00.453Z,29.55
2022-10-14T00:17:28.169Z,28.75
2022-10-14T00:19:57.272Z,28.88
2022-10-14T00:22:25.153Z,28.70
2022-10-14T00:24:52.963Z,26.70
2022-10-14T00:27:20.931Z,27.92
2022-10-14T00:29:48.710Z,25.48
2022-10-14T00:32:16.318Z,26.02
2022-10-14T00:34:44.144Z,24.80
2022-10-14T00:37:13.100Z,25.35
2022-10-14T00:39:40.839Z,23.70
2022-10-14T00:42:11.319Z,22.98
2022-10-14T00:45:01.704Z,21.92
2022-10-14T00:47:29.766Z,21.25
2022-10-14T00:49:58.184Z,18.88
2022-10-14T00:52:27.857Z,19.27
2022-10-14T00:54:58.341Z,18.27
2022-10-14T00:57:27.191Z,17.67
2022-10-14T00:59:58.001Z,17.60
2022-10-14T01:02:25.647Z,17.92
2022-10-14T01:04:53.343Z,17.90
2022-10-14T01:07:30.447Z,17.77
2022-10-14T01:10:05.374Z,17.35
2022-10-14T01:12:37.267Z,17.73
2022-10-14T01:15:08.809Z,17.52
2022-10-14T01:17:42.254Z,19.38
2022-10-14T01:20:25.025Z,19.17
2022-10-14T01:23:03.061Z,19.70
2022-10-14T01:25:33.870Z,19.40
2022-10-14T01:28:16.474Z,20.38
2022-10-14T01:30:46.925Z,19.47
2022-10-14T01:33:17.211Z,19.55
2022-10-14T01:35:52.398Z,19.73
2022-10-14T01:38:21.511Z,19.60
2022-10-14T01:40:51.875Z,19.52
2022-10-14T01:43:20.978Z,18.98
2022-10-14T01:45:50.830Z,19.23
2022-10-14T01:48:20.161Z,16.92
2022-10-14T01:50:50.078Z,18.00
2022-10-14T01:53:20.488Z,17.73
2022-10-14T01:55:49.210Z,16.85
2022-10-14T01:58:18.294Z,17.10
2022-10-14T02:00:48.089Z,17.02
2022-10-14T02:03:17.130Z,15.60
2022-10-14T02:05:48.388Z,15.73
2022-10-14T02:08:22.232Z,14.75
2022-10-14T02:11:04.522Z,14.90
2022-10-14T02:13:50.225Z,15.15
2022-10-14T02:16:24.916Z,14.10
2022-10-14T02:18:58.198Z,15.15
2022-10-14T02:21:30.126Z,14.27
2022-10-14T02:24:01.325Z,13.93
2022-10-14T02:26:29.614Z,13.75
2022-10-14T02:28:58.060Z,13.82
2022-10-14T02:31:25.921Z,13.48
2022-10-14T02:33:57.229Z,14.07
2022-10-14T02:36:26.263Z,13.95
2022-10-14T02:38:54.764Z,14.35
2022-10-14T02:41:23.942Z,13.45
2022-10-14T02:43:51.561Z,13.93
2022-10-14T02:46:21.280Z,14.67
2022-10-14T02:48:49.013Z,15.30
2022-10-14T02:51:18.375Z,16.02
2022-10-14T02:53:46.005Z,16.48
2022-10-14T02:56:14.822Z,17.00
2022-10-14T02:58:42.445Z,15.68
2022-10-14T03:01:10.119Z,17.73
2022-10-14T03:03:37.761Z,19.35
2022-10-14T03:06:05.611Z,17.83
2022-10-14T03:08:34.625Z,19.33
2022-10-14T03:11:02.261Z,18.83
2022-10-14T03:13:29.920Z,19.10
2022-10-14T03:15:58.237Z,19.75
2022-10-14T03:18:25.902Z,18.30
2022-10-14T03:20:53.526Z,20.23
2022-10-14T03:23:21.129Z,19.83
2022-10-14T03:25:50.203Z,19.15
2022-10-14T03:28:17.810Z,19.75
2022-10-14T03:30:45.459Z,19.55
2022-10-14T03:33:15.020Z,20.42
2022-10-14T03:35:43.182Z,21.40
2022-10-14T03:38:10.787Z,20.05
2022-10-14T03:40:38.363Z,21.90
2022-10-14T03:43:07.442Z,20.93
2022-10-14T03:45:35.095Z,21.50
2022-10-14T03:48:02.785Z,21.33
2022-10-14T03:50:30.400Z,20.83
2022-10-14T03:52:57.968Z,21.23
2022-10-14T03:55:25.988Z,21.15
2022-10-14T03:57:53.601Z,20.83
2022-10-14T04:00:22.834Z,21.38
2022-10-14T04:02:50.490Z,20.50
2022-10-14T04:05:18.313Z,20.63
2022-10-14T04:07:45.912Z,19.85
2022-10-14T04:10:13.567Z,18.95
2022-10-14T04:12:41.236Z,20.60
2022-10-14T04:15:09.582Z,19.25
2022-10-14T04:17:38.569Z,19.30
2022-10-14T04:20:07.255Z,19.70
2022-10-14T04:22:34.940Z,18.73
2022-10-14T04:25:02.553Z,19.27
2022-10-14T04:27:30.173Z,17.30
2022-10-14T04:29:57.790Z,19.88
2022-10-14T04:32:25.510Z,19.15
2022-10-14T04:34:54.938Z,20.10
2022-10-14T04:37:22.485Z,19.80
2022-10-14T04:39:50.104Z,20.88
2022-10-14T04:42:17.746Z,21.13
2022-10-14T04:44:45.335Z,22.17
2022-10-14T04:47:12.910Z,21.92
2022-10-14T04:49:40.579Z,20.40
2022-10-14T04:52:09.567Z,22.08
2022-10-14T04:54:37.182Z,19.88
2022-10-14T04:57:04.946Z,22.53
2022-10-14T04:59:32.580Z,22.33
2022-10-14T05:02:00.255Z,23.27
2022-10-14T05:04:28.057Z,22.23
2022-10-14T05:06:55.685Z,21.10
2022-10-14T05:09:25.137Z,22.30
2022-10-14T05:11:52.770Z,22.70
2022-10-14T05:14:20.770Z,23.20
2022-10-14T05:16:48.410Z,21.00
2022-10-14T05:19:16.423Z,23.55
2022-10-14T05:21:44.013Z,23.98
2022-10-14T05:24:11.629Z,25.35
2022-10-14T05:26:40.630Z,24.05
2022-10-14T05:29:08.260Z,24.85
2022-10-14T05:31:35.905Z,24.87
2022-10-14T05:34:03.520Z,25.25
2022-10-14T05:36:31.117Z,27.90
2022-10-14T05:38:58.874Z,28.90
2022-10-14T05:41:26.922Z,29.17
2022-10-14T05:43:55.959Z,30.33
2022-10-14T05:46:23.576Z,29.73
2022-10-14T05:48:51.268Z,29.10
2022-10-14T05:51:21.147Z,30.58
2022-10-14T05:53:48.837Z,31.13
2022-10-14T05:56:16.607Z,30.38
2022-10-14T05:58:44.266Z,30.65
2022-10-14T06:01:13.331Z,32.05
2022-10-14T06:03:41.028Z,31.42
2022-10-14T06:06:10.554Z,33.03
2022-10-14T06:08:38.214Z,28.90
2022-10-14T06:11:06.130Z,32.55
2022-10-14T06:13:33.776Z,32.58
2022-10-14T06:16:04.288Z,34.08
2022-10-14T06:18:33.375Z,34.22
2022-10-14T06:21:01.472Z,36.22
2022-10-14T06:23:29.540Z,38.42
2022-10-14T06:25:57.197Z,38.17
2022-10-14T06:28:24.909Z,35.97
2022-10-14T06:30:52.651Z,34.90
2022-10-14T06:33:20.679Z,35.25
2022-10-14T06:35:50.121Z,35.97
2022-10-14T06:38:17.725Z,33.97
2022-10-14T06:40:45.438Z,33.88
2022-10-14T06:43:13.069Z,35.65
2022-10-14T06:45:40.712Z,36.65
2022-10-14T06:48:08.450Z,37.67
2022-10-14T06:50:36.219Z,37.42
2022-10-14T06:53:05.360Z,35.87
2022-10-14T06:55:33.049Z,38.27
2022-10-14T06:58:00.730Z,36.80
2022-10-14T07:00:28.366Z,35.53
2022-10-14T07:02:56.008Z,36.83
2022-10-14T07:05:23.644Z,37.20
2022-10-14T07:07:51.321Z,37.08
2022-10-14T07:10:20.459Z,37.53
2022-10-14T07:12:48.097Z,35.17
2022-10-14T07:15:15.829Z,36.20
2022-10-14T07:17:43.426Z,34.57
2022-10-14T07:20:12.670Z,37.13
2022-10-14T07:22:40.612Z,34.90
2022-10-14T07:25:09.388Z,36.63
2022-10-14T07:27:38.457Z,32.88
2022-10-14T07:30:07.322Z,36.03
2022-10-14T07:32:37.122Z,32.83
2022-10-14T07:35:05.255Z,33.63
2022-10-14T07:37:32.992Z,31.98
2022-10-14T07:40:00.598Z,32.90
2022-10-14T07:42:28.251Z,32.03
2022-10-14T07:44:58.115Z,32.00
2022-10-14T07:47:25.741Z,29.90
2022-10-14T07:49:53.894Z,32.13
2022-10-14T07:52:21.581Z,30.00
2022-10-14T07:54:49.284Z,29.92
2022-10-14T07:57:17.102Z,29.63
2022-10-14T07:59:44.729Z,29.73
2022-10-14T08:02:13.906Z,28.25
2022-10-14T08:04:41.543Z,29.13
2022-10-14T08:07:09.185Z,27.83
2022-10-14T08:09:37.541Z,26.75
2022-10-14T08:12:05.586Z,28.42
2022-10-14T08:14:33.258Z,27.30
2022-10-14T08:17:00.878Z,28.42
2022-10-14T08:19:30.042Z,27.60
2022-10-14T08:21:57.657Z,28.83
2022-10-14T08:24:25.275Z,26.48
2022-10-14T08:26:54.378Z,27.10
2022-10-14T08:29:23.506Z,28.75
2022-10-14T08:31:51.327Z,29.95
2022-10-14T08:34:21.005Z,29.15
2022-10-14T08:36:50.289Z,30.90
2022-10-14T08:39:19.147Z,31.17
2022-10-14T08:42:17.345Z,31.83
2022-10-14T08:44:48.390Z,31.20
2022-10-14T08:47:17.368Z,33.70
2022-10-14T08:49:53.144Z,31.70
2022-10-14T08:52:24.660Z,31.35
2022-10-14T08:54:56.593Z,34.17
2022-10-14T08:57:26.660Z,32.50
2022-10-14T08:59:54.571Z,32.33
2022-10-14T09:02:28.904Z,34.80
2022-10-14T09:04:56.623Z,32.85
2022-10-14T09:07:26.103Z,32.08
2022-10-14T09:09:57.862Z,31.63
2022-10-14T09:12:28.099Z,33.05
2022-10-14T09:15:09.400Z,30.20
2022-10-14T09:17:42.707Z,29.67
2022-10-14T09:20:19.651Z,28.70
2022-10-14T09:22:57.521Z,27.55
2022-10-14T09:25:25.186Z,26.95
2022-10-14T09:27:52.801Z,25.60
2022-10-14T09:30:20.520Z,24.55
2022-10-14T09:32:50.126Z,23.73
2022-10-14T09:35:23.338Z,23.42
2022-10-14T09:37:53.015Z,23.33
2022-10-14T09:40:26.804Z,23.33
2022-10-14T09:42:58.378Z,23.53
2022-10-14T09:45:26.923Z,22.48
2022-10-14T09:47:56.602Z,22.27
2022-10-14T09:50:29.505Z,21.73
2022-10-14T09:53:02.734Z,22.38
2022-10-14T09:55:30.853Z,22.48
2022-10-14T09:58:07.322Z,21.10
2022-10-14T10:00:37.737Z,22.38
2022-10-14T10:03:06.905Z,21.98
2022-10-14T10:05:35.761Z,22.33
2022-10-14T10:08:11.106Z,22.63
2022-10-14T10:10:38.811Z,21.70
2022-10-14T10:13:22.089Z,21.45
2022-10-14T10:15:58.563Z,21.70
2022-10-14T10:18:26.368Z,21.63
2022-10-14T10:21:06.619Z,22.67
2022-10-14T10:23:36.681Z,22.83
2022-10-14T10:26:27.066Z,23.95
2022-10-14T10:28:57.418Z,24.67
2022-10-14T10:31:35.313Z,23.85
2022-10-14T10:34:10.465Z,24.48
2022-10-14T10:36:41.637Z,24.58
2022-10-14T10:39:19.768Z,26.58
2022-10-14T10:41:58.424Z,25.55
2022-10-14T10:44:47.679Z,26.35
2022-10-14T10:47:31.419Z,26.42
2022-10-14T10:50:17.925Z,25.20
2022-10-14T10:53:01.319Z,29.75
2022-10-14T10:55:36.528Z,28.75
2022-10-14T10:58:16.720Z,29.10
2022-10-14T11:00:49.715Z,27.27
2022-10-14T11:03:32.211Z,28.35
2022-10-14T11:06:03.870Z,27.52
2022-10-14T11:09:11.907Z,26.77
2022-10-14T11:12:07.886Z,27.50
2022-10-14T11:14:48.432Z,28.98
2022-10-14T11:17:22.040Z,27.63
2022-10-14T11:19:54.171Z,26.50
2022-10-14T11:22:38.649Z,25.80
2022-10-14T11:25:17.542Z,25.60
2022-10-14T11:27:52.477Z,25.75
2022-10-14T11:30:21.970Z,26.42
2022-10-14T11:33:16.598Z,25.55
2022-10-14T11:35:51.870Z,25.48
2022-10-14T11:38:29.340Z,25.17
2022-10-14T11:41:01.522Z,26.45
2022-10-14T11:43:39.449Z,25.42
2022-10-14T11:46:09.610Z,26.50
2022-10-14T11:48:41.506Z,27.05
2022-10-14T11:51:12.693Z,28.52
2022-10-14T11:53:47.419Z,26.77
2022-10-14T11:56:25.782Z,27.23
2022-10-14T11:58:55.193Z,27.83
2022-10-14T12:01:27.602Z,27.63
2022-10-14T12:03:59.822Z,26.45
2022-10-14T12:06:30.766Z,27.67
2022-10-14T12:09:01.340Z,28.48
2022-10-14T12:11:32.239Z,27.10
2022-10-14T12:14:06.203Z,28.52
2022-10-14T12:16:34.284Z,27.93
2022-10-14T12:19:02.093Z,28.00
2022-10-14T12:21:34.676Z,26.30
2022-10-14T12:24:05.959Z,26.73
2022-10-14T12:26:47.191Z,36.03
2022-10-14T12:29:18.822Z,33.45
2022-10-14T12:31:50.599Z,26.35
2022-10-14T12:34:36.146Z,35.10
2022-10-14T12:37:50.073Z,26.65
2022-10-14T12:40:32.507Z,25.97
2022-10-14T12:43:15.816Z,23.50
2022-10-14T12:46:02.297Z,25.23
2022-10-14T12:48:32.874Z,22.05
2022-10-14T12:51:12.518Z,24.90
2022-10-14T12:53:48.277Z,22.52
2022-10-14T12:56:29.610Z,22.52
2022-10-14T12:59:01.248Z,23.77
2022-10-14T13:01:33.769Z,23.98
2022-10-14T13:04:07.063Z,25.77
2022-10-14T13:06:37.581Z,23.90
2022-10-14T13:09:34.633Z,24.73
2022-10-14T13:12:46.966Z,26.13
2022-10-14T13:15:37.132Z,24.60
2022-10-14T13:18:51.317Z,25.15
2022-10-14T13:21:32.127Z,26.08
2022-10-14T13:24:01.754Z,24.13
2022-10-14T13:26:37.828Z,22.10
2022-10-14T13:29:18.871Z,21.90
2022-10-14T13:31:53.959Z,20.75
2022-10-14T13:34:31.001Z,21.40
2022-10-14T13:37:05.428Z,16.23
2022-10-14T13:39:34.001Z,17.75
2022-10-14T13:42:02.494Z,17.15
2022-10-14T13:44:30.508Z,17.33
2022-10-14T13:46:58.214Z,16.08
2022-10-14T13:49:31.924Z,15.73
2022-10-14T13:52:01.643Z,13.95
2022-10-14T13:54:31.000Z,11.57
2022-10-14T14:02:40.824Z,11.60
2022-10-14T14:05:15.824Z,10.98
2022-10-14T14:08:30.108Z,12.15
2022-10-14T14:10:32.314Z,12.25
2022-10-14T14:13:01.176Z,13.15
2022-10-14T14:15:30.159Z,13.57
2022-10-14T14:17:57.782Z,14.05
2022-10-14T14:20:29.693Z,15.02
2022-10-14T14:22:59.329Z,54.00
2022-10-14T14:25:34.647Z,16.23
2022-10-14T14:28:05.643Z,12.68
2022-10-14T14:30:35.148Z,13.50
2022-10-14T14:33:04.347Z,14.10
2022-10-14T14:35:33.407Z,14.45
2022-10-14T14:38:01.389Z,13.40
2022-10-14T14:40:30.965Z,14.35
2022-10-14T14:43:00.036Z,13.10
2022-10-14T14:45:30.488Z,14.52
2022-10-14T14:47:59.564Z,13.13
2022-10-14T14:50:31.155Z,13.65
2022-10-14T14:53:03.433Z,12.93
2022-10-14T14:55:36.473Z,13.17
2022-10-14T14:58:05.423Z,13.93
2022-10-14T15:00:33.354Z,14.50
2022-10-14T15:03:02.458Z,14.57
2022-10-14T15:05:30.587Z,14.30
2022-10-14T15:07:58.275Z,14.03
2022-10-14T15:10:29.559Z,14.07
2022-10-14T15:12:59.015Z,14.02
2022-10-14T15:15:29.899Z,14.38
2022-10-14T15:18:14.010Z,14.38
2022-10-14T15:20:42.743Z,14.07
2022-10-14T15:23:46.963Z,13.43
2022-10-14T15:26:30.902Z,14.20
2022-10-14T15:29:07.176Z,14.82
2022-10-14T15:33:58.802Z,16.52
2022-10-14T15:36:27.045Z,16.58
2022-10-14T15:38:58.314Z,15.02
2022-10-14T15:41:26.170Z,16.08
2022-10-14T15:43:53.793Z,16.67
2022-10-14T15:46:39.083Z,16.30
2022-10-14T15:49:19.144Z,14.60
2022-10-14T15:51:46.742Z,15.73
2022-10-14T15:56:11.304Z,15.07
2022-10-14T15:58:39.008Z,15.60
2022-10-14T16:01:07.373Z,14.63
2022-10-14T16:03:37.314Z,15.60
2022-10-14T16:06:09.022Z,14.43
2022-10-14T16:08:36.664Z,15.23
2022-10-14T16:11:04.741Z,16.00
2022-10-14T16:13:33.730Z,15.00
2022-10-14T16:16:02.629Z,14.98
2022-10-14T16:18:30.258Z,14.35
2022-10-14T16:20:57.893Z,14.73
2022-10-14T16:23:29.584Z,15.30
2022-10-14T16:26:00.818Z,18.60
2022-10-14T16:28:28.560Z,18.90
2022-10-14T16:30:57.614Z,17.88
2022-10-14T16:33:25.272Z,16.13
2022-10-14T16:35:54.795Z,16.27
2022-10-14T16:38:24.108Z,20.45
2022-10-14T16:40:55.384Z,14.45
2022-10-14T16:43:23.064Z,18.53
2022-10-14T16:45:50.694Z,18.55
2022-10-14T16:48:19.894Z,15.27
2022-10-14T16:50:50.037Z,15.63
2022-10-14T16:53:35.510Z,15.18
2022-10-14T16:56:03.233Z,12.43
2022-10-14T16:58:31.516Z,11.30
2022-10-14T17:00:59.295Z,12.02
2022-10-14T17:03:29.558Z,10.98
2022-10-14T17:05:58.763Z,10.35
2022-10-14T17:08:26.476Z,10.75
2022-10-14T17:10:58.252Z,10.77
2022-10-14T17:13:25.927Z,10.82
2022-10-14T17:15:59.966Z,9.93
2022-10-14T17:18:33.695Z,12.27
2022-10-14T17:21:02.423Z,11.50
2022-10-14T17:23:31.151Z,11.13
2022-10-14T17:25:58.793Z,13.63
2022-10-14T17:28:26.691Z,15.15
2022-10-14T17:30:54.422Z,13.00
2022-10-14T17:33:23.033Z,15.40
2022-10-14T17:35:58.011Z,18.08
2022-10-14T17:38:26.018Z,15.13
2022-10-14T17:40:53.860Z,14.63
2022-10-14T17:43:21.486Z,19.48
2022-10-14T17:45:49.051Z,25.13
2022-10-14T17:48:17.141Z,37.75
2022-10-14T17:50:50.998Z,39.92
2022-10-14T17:53:19.995Z,25.30
2022-10-14T17:55:47.708Z,20.75
2022-10-14T17:58:15.418Z,23.02
2022-10-14T18:00:43.490Z,23.08
2022-10-14T18:03:13.348Z,22.27
2022-10-14T18:05:43.957Z,22.10
2022-10-14T18:08:14.596Z,22.00
2022-10-14T18:10:43.938Z,21.15
2022-10-14T18:13:11.550Z,18.33
2022-10-14T18:15:39.167Z,18.38
2022-10-14T18:18:07.053Z,17.77
2022-10-14T18:20:36.931Z,16.60
2022-10-14T18:23:04.539Z,17.00
2022-10-14T18:25:32.451Z,18.88
2022-10-14T18:28:01.462Z,17.90
2022-10-14T18:30:29.121Z,17.38
2022-10-14T18:32:57.215Z,22.30
2022-10-14T18:35:24.860Z,20.13
2022-10-14T18:37:52.515Z,19.10
2022-10-14T18:40:21.456Z,20.67
2022-10-14T18:42:49.047Z,21.48
2022-10-14T18:45:18.733Z,19.15
2022-10-14T18:47:47.583Z,18.50
2022-10-14T18:50:15.416Z,16.70
2022-10-14T18:52:43.049Z,16.63
2022-10-14T18:55:10.797Z,18.67
2022-10-14T18:57:38.448Z,18.37
2022-10-14T19:00:09.447Z,18.73
2022-10-14T19:02:41.057Z,17.08
2022-10-14T19:05:10.659Z,21.98
2022-10-14T19:07:38.925Z,22.13
2022-10-14T19:10:07.418Z,26.40
2022-10-14T19:12:44.413Z,25.80
2022-10-14T19:15:12.725Z,28.88
2022-10-14T19:17:42.772Z,32.85
2022-10-14T19:20:10.779Z,41.22
2022-10-14T19:22:44.668Z,43.50
2022-10-14T19:25:12.513Z,38.70
2022-10-14T19:27:40.176Z,35.47
2022-10-14T19:30:10.032Z,33.25
2022-10-14T19:32:37.718Z,32.05
2022-10-14T19:35:07.103Z,28.77
2022-10-14T19:37:34.807Z,27.87
2022-10-14T19:40:02.508Z,25.33
2022-10-14T19:42:30.142Z,22.87
2022-10-14T19:44:57.804Z,20.70
2022-10-14T19:47:25.712Z,20.65
2022-10-14T19:49:53.542Z,20.63
2022-10-14T19:52:22.640Z,21.15
2022-10-14T19:54:50.240Z,20.35
2022-10-14T19:57:17.829Z,21.08
2022-10-14T19:59:45.399Z,21.80
2022-10-14T20:02:13.026Z,22.95
2022-10-14T20:04:40.646Z,22.08
2022-10-14T20:07:08.341Z,22.08
2022-10-14T20:09:37.477Z,21.85
2022-10-14T20:12:05.315Z,22.58
2022-10-14T20:14:33.021Z,24.08
2022-10-14T20:17:01.876Z,20.75
2022-10-14T20:19:29.517Z,22.65
2022-10-14T20:21:57.555Z,26.23
2022-10-14T20:24:25.234Z,24.67
2022-10-14T20:26:54.160Z,22.23
2022-10-14T20:29:21.875Z,22.52
2022-10-14T20:31:49.483Z,23.55
2022-10-14T20:34:17.095Z,23.20
2022-10-14T20:36:44.776Z,21.65
2022-10-14T20:39:12.542Z,21.37
2022-10-14T20:41:40.158Z,21.88
2022-10-14T20:44:09.196Z,25.80
2022-10-14T20:46:36.813Z,25.67
2022-10-14T20:49:04.457Z,23.23
2022-10-14T20:51:32.118Z,21.20
2022-10-14T20:54:03.965Z,20.95
2022-10-14T20:56:33.646Z,21.27
2022-10-14T20:59:02.734Z,21.30
2022-10-14T21:01:31.966Z,21.35
2022-10-14T21:04:01.344Z,22.85
2022-10-14T21:06:29.123Z,20.85
2022-10-14T21:08:56.778Z,20.75
2022-10-14T21:11:26.182Z,22.80
2022-10-14T21:13:54.885Z,22.33
2022-10-14T21:16:24.849Z,23.20
2022-10-14T21:18:57.913Z,23.92
2022-10-14T21:21:27.489Z,22.38
2022-10-14T21:23:55.317Z,23.25
2022-10-14T21:26:23.628Z,22.02
2022-10-14T21:28:51.309Z,22.23
2022-10-14T21:31:19.931Z,23.48
2022-10-14T21:33:48.102Z,21.83
2022-10-14T21:36:17.346Z,22.23
2022-10-14T21:38:45.131Z,22.48
2022-10-14T21:41:13.170Z,21.20
2022-10-14T21:43:41.168Z,22.60
2022-10-14T21:46:10.099Z,25.67
2022-10-14T21:48:37.820Z,22.88
2022-10-14T21:51:06.925Z,20.65
2022-10-14T21:53:36.254Z,25.48
2022-10-14T21:56:04.106Z,24.70
2022-10-14T21:58:31.850Z,21.70
2022-10-14T22:01:04.773Z,20.88
2022-10-14T22:03:32.790Z,21.87
2022-10-14T22:06:01.177Z,21.55
2022-10-14T22:08:32.987Z,21.83
2022-10-14T22:11:02.110Z,22.67
2022-10-14T22:13:29.892Z,23.98
2022-10-14T22:15:57.887Z,24.20
2022-10-14T22:18:25.633Z,21.77
2022-10-14T22:21:01.128Z,21.95
2022-10-14T22:23:28.837Z,22.42
2022-10-14T22:26:01.820Z,23.63
2022-10-14T22:28:30.738Z,24.02
2022-10-14T22:31:05.080Z,23.25
2022-10-14T22:33:34.172Z,26.07
2022-10-14T22:36:09.362Z,24.50
2022-10-14T22:38:37.140Z,26.17
2022-10-14T22:41:07.059Z,24.58
2022-10-14T22:43:35.795Z,23.65
2022-10-14T22:46:04.937Z,24.52
2022-10-14T22:48:32.685Z,26.42
2022-10-14T22:51:04.183Z,25.52
2022-10-14T22:53:31.983Z,26.95
2022-10-14T22:55:59.933Z,26.33
2022-10-14T22:58:29.054Z,26.53
2022-10-14T23:00:56.844Z,29.45
2022-10-14T23:03:25.512Z,30.50
2022-10-14T23:05:53.103Z,26.37
2022-10-14T23:08:21.121Z,25.73
2022-10-14T23:10:48.770Z,26.20
2022-10-14T23:13:16.537Z,24.13
2022-10-14T23:15:55.658Z,26.77
2022-10-14T23:18:23.454Z,25.80
2022-10-14T23:20:51.270Z,28.92
2022-10-14T23:23:18.973Z,26.05
2022-10-14T23:25:46.684Z,25.03
2022-10-14T23:28:14.729Z,29.02
2022-10-14T23:30:42.534Z,25.58
2022-10-14T23:33:12.661Z,25.13
2022-10-14T23:35:40.294Z,24.97
2022-10-14T23:38:07.921Z,23.33
2022-10-14T23:40:35.677Z,24.60
2022-10-14T23:43:03.236Z,24.00
2022-10-14T23:45:30.919Z,25.10
2022-10-14T23:47:58.591Z,24.65
2022-10-14T23:50:27.625Z,22.80
2022-10-14T23:52:55.198Z,24.52
2022-10-14T23:55:22.852Z,27.43
2022-10-14T23:57:50.605Z,25.73
